Flight Track Log - Related Links

Times and Time Zones

All times are in EDT time to prevent confusion due to time zone crossing. See the ASQ4209 flight status page for this flight to view local times or setup timezone preferences in your user account.

Time Position Orientation Groundspeed Altitude Reporting Facility
EDT Latitude Longitude Course Direction KTS MPH feet Rate Location/Type
Sun 01:01:03 PM 29.9661 -95.3456 90° East 155 178 600  Level Houston Center
Sun 01:02:23 PM 29.9222 -95.2783 127° Southeast 240 276 3,100 1,606 Climbing Houston Center
Sun 01:03:10 PM 29.8919 -95.2253 123° Southeast 237 273 4,000 1,541 Climbing Houston Center
Sun 01:04:00 PM 29.9834 -94.8968 90° East  Level FlightAware Approximate
Sun 01:04:12 PM 29.8489 -95.1528 124° Southeast 270 311 5,900  Level Houston Center
Sun 01:05:00 PM 29.9834 -94.7877 90° East  Level FlightAware Approximate
Sun 01:05:14 PM 29.8100 -95.0750 120° Southeast 285 328 8,700  Level Houston Center
Sun 01:06:00 PM 29.9833 -94.6785 90° East  Level FlightAware Approximate
Sun 01:06:16 PM 29.8231 -94.9864 80° East 281 323 10,800  Level Houston Center
Sun 01:07:18 PM 29.8494 -94.8836 73° East 328 377 11,900 1,355 Climbing Houston Center
Sun 01:08:20 PM 29.8764 -94.7744 74° East 352 405 13,600 1,597 Climbing Houston Center
Sun 01:09:22 PM 29.9050 -94.6653 73° East 355 409 15,200 1,548 Climbing Houston Center
Sun 01:10:24 PM 29.9389 -94.5297 74° East 367 422 16,800 1,258 Climbing Houston Center
Sun 01:11:26 PM 29.9658 -94.4239 74° East 375 432 17,800 1,161 Climbing Houston Center
Sun 01:12:28 PM 29.9958 -94.3031 74° East 389 448 19,200 1,500 Climbing Houston Center
Sun 01:13:30 PM 30.0156 -94.1525 81° East 398 458 20,900 1,548 Climbing Houston Center
Sun 01:14:32 PM 30.0311 -94.0242 82° East 404 465 22,400 1,016 Climbing Houston Center
Sun 01:15:34 PM 30.0469 -93.8950 82° East 407 468 23,000 290 Climbing Houston Center
Sun 01:16:36 PM 30.0639 -93.7575 82° East 432 497 23,000  Level Houston Center
Sun 01:17:38 PM 30.0808 -93.6144 82° East 450 518 23,000  Level Houston Center
Sun 01:18:40 PM 30.1000 -93.4469 82° East 446 513 23,000  Level Houston Center
Sun 01:19:42 PM 30.1167 -93.3094 82° East 441 507 23,000  Level Houston Center
Sun 01:20:44 PM 30.1317 -93.1728 83° East 434 499 23,000  Level Houston Center
Sun 01:21:46 PM 30.1528 -93.0397 80° East 427 491 23,000  Level Houston Center
Sun 01:22:48 PM 30.1792 -92.9086 77° East 423 487 23,000 -290 Level Houston Center
Sun 01:23:50 PM 30.2108 -92.7506 77° East 422 486 22,400 -774 Descending Houston Center
Sun 01:24:52 PM 30.2364 -92.6189 77° East 422 486 21,400 -968 Descending Houston Center
Sun 01:25:54 PM 30.2614 -92.4869 78° East 421 484 20,400 -919 Descending Houston Center
Sun 01:26:56 PM 30.2872 -92.3522 77° East 429 494 19,500 -823 Descending Houston Center
Sun 01:27:58 PM 30.3139 -92.2117 78° East 430 495 18,700 -1,403 Descending Houston Center
Sun 01:29:00 PM 30.3378 -92.0875 77° East 407 468 16,600 -2,274 Descending Houston Center
Sun 01:30:02 PM 30.3400 -91.9456 89° East 373 429 14,000 -1,707 Descending Houston Center
Sun 01:31:03 PM 30.3267 -91.8325 98° East 360 414 13,100 -634 Descending Houston Center
Sun 01:32:05 PM 30.3167 -91.7222 96° East 348 400 12,700 -435 Descending Houston Center
Sun 01:33:07 PM 30.3031 -91.6150 98° East 348 400 12,200 -581 Descending Houston Center
Sun 01:34:09 PM 30.2878 -91.5197 100° East 314 361 11,500 -1,403 Descending Houston Center
Sun 01:35:11 PM 30.2997 -91.4383 80° East 267 307 9,300 -2,880 Descending Houston Center
Sun 01:36:14 PM 30.3625 -91.3589 48° Northeast 276 318 5,500 -2,613 Descending Houston Center
Sun 01:37:15 PM 30.4050 -91.3011 50° Northeast 270 311 3,900 -1,574 Descending Houston Center

Login

Don't have an account? Register now (free) for customized features, flight alerts, and more!